Time;durP1;ratioP1;P1;durP2;ratioP2;P2;SDS_P1;SDS_P2;PMS_P1;PMS_P2;Temp;Humidity;BMP_temperature;BMP_pressure;BME280_temperature;BME280_humidity;BME280_pressure;Samples;Min_cycle;Max_cycle;Signal;HPM_P1;HPM_P2
2021/12/22 00:00:17;;;;;;;;;;;;;;;-4.36;80.01;101389.64;84592;1334;22682;-74
2021/12/22 00:02:48;;;;;;;21.40;11.70;;;;;;;-4.48;80.14;101391.21;84624;1330;22608;-73
2021/12/22 00:04:58;;;;;;;21.10;11.10;;;;;;;-4.54;80.07;101393.52;84564;1333;22618;-73
2021/12/22 00:07:09;;;;;;;26.10;12.70;;;;;;;-4.60;80.26;101398.39;84642;1331;23903;-73
2021/12/22 00:09:21;;;;;;;21.80;11.40;;;;;;;-4.63;80.29;101401.20;84634;1333;25343;-73
2021/12/22 00:11:33;;;;;;;20.50;12.00;;;;;;;-4.63;80.44;101398.84;84640;1333;22637;-73
2021/12/22 00:13:41;;;;;;;22.60;12.30;;;;;;;-4.59;80.58;101400.81;84613;1333;22632;-73
2021/12/22 00:15:49;;;;;;;24.40;11.90;;;;;;;-4.54;80.74;101397.95;84609;1330;24239;-73
2021/12/22 00:18:00;;;;;;;18.50;11.40;;;;;;;-4.49;80.76;101397.83;84626;1332;26540;-73
2021/12/22 00:20:12;;;;;;;25.30;13.40;;;;;;;-4.44;80.95;101394.64;84483;1333;22892;-73
2021/12/22 00:22:20;;;;;;;27.70;13.60;;;;;;;-4.38;80.95;101398.61;84665;1330;22592;-73
2021/12/22 00:24:34;;;;;;;21.50;12.00;;;;;;;-4.33;80.97;101399.98;84618;1329;22764;-73
2021/12/22 00:26:42;;;;;;;22.50;12.20;;;;;;;-4.30;80.92;101399.75;84628;1330;22615;-73
2021/12/22 00:28:54;;;;;;;17.30;10.20;;;;;;;-4.30;80.93;101402.15;83919;1330;1003138;-74
2021/12/22 00:31:09;;;;;;;22.40;11.30;;;;;;;-4.28;80.91;101396.11;84577;1334;25548;-75
2021/12/22 00:33:21;;;;;;;19.80;10.80;;;;;;;-4.28;80.93;101402.23;84621;1330;22903;-73
2021/12/22 00:35:37;;;;;;;20.60;11.30;;;;;;;-4.28;80.80;101402.91;84658;1329;22645;-73
2021/12/22 00:37:46;;;;;;;18.10;11.60;;;;;;;-4.28;80.80;101403.44;84622;1329;22594;-73
2021/12/22 00:39:54;;;;;;;21.40;12.00;;;;;;;-4.26;80.85;101408.93;84616;1330;22952;-73
2021/12/22 00:42:06;;;;;;;17.80;10.10;;;;;;;-4.26;80.66;101410.16;84650;1330;22747;-73
2021/12/22 00:44:17;;;;;;;17.20;10.50;;;;;;;-4.27;80.61;101406.70;84619;1327;24309;-73
2021/12/22 00:46:31;;;;;;;24.20;12.30;;;;;;;-4.26;80.69;101410.66;84665;1330;22836;-77
2021/12/22 00:48:41;;;;;;;23.40;11.80;;;;;;;-4.26;80.72;101407.59;84586;1335;22614;-77
2021/12/22 00:50:53;;;;;;;26.60;11.80;;;;;;;-4.28;80.77;101411.60;83901;1330;1003258;-79
2021/12/22 00:53:05;;;;;;;27.80;14.70;;;;;;;-4.29;80.60;101412.39;84563;1330;22612;-78
2021/12/22 00:55:20;;;;;;;23.90;11.60;;;;;;;-4.34;80.64;101409.67;83949;1330;1003491;-76
2021/12/22 00:57:33;;;;;;;22.40;12.60;;;;;;;-4.37;80.72;101409.53;84651;1330;22618;-77
2021/12/22 00:59:45;;;;;;;22.60;13.70;;;;;;;-4.40;80.62;101407.03;84649;1329;26513;-78
2021/12/22 01:01:58;;;;;;;23.70;13.00;;;;;;;-4.43;80.72;101406.39;84645;1329;22610;-77
2021/12/22 01:04:10;;;;;;;25.00;14.20;;;;;;;-4.46;80.65;101405.94;84621;1329;22658;-78
2021/12/22 01:06:18;;;;;;;24.30;13.30;;;;;;;-4.48;80.72;101404.86;84617;1332;22738;-73
2021/12/22 01:08:27;;;;;;;27.20;14.30;;;;;;;-4.49;80.75;101406.35;84622;1322;22689;-73
2021/12/22 01:10:36;;;;;;;23.80;13.20;;;;;;;-4.50;80.64;101404.27;84664;1329;22650;-73
2021/12/22 01:12:44;;;;;;;27.40;13.00;;;;;;;-4.51;80.67;101408.81;84625;1325;22644;-73
2021/12/22 01:14:56;;;;;;;23.00;13.70;;;;;;;-4.54;80.67;101412.95;84580;1335;23972;-73
2021/12/22 01:17:10;;;;;;;23.30;12.80;;;;;;;-4.58;80.61;101409.20;84685;1324;22624;-77
2021/12/22 01:19:26;;;;;;;22.70;12.90;;;;;;;-4.60;80.60;101414.07;84648;1333;22593;-78
2021/12/22 01:21:45;;;;;;;25.20;14.10;;;;;;;-4.63;80.73;101411.71;84577;1335;26567;-76
2021/12/22 01:24:01;;;;;;;24.90;13.60;;;;;;;-4.67;80.85;101410.92;84644;1333;22890;-77
2021/12/22 01:26:13;;;;;;;23.80;13.90;;;;;;;-4.69;80.82;101415.23;84631;1330;22890;-78
2021/12/22 01:28:26;;;;;;;23.60;14.40;;;;;;;-4.68;80.96;101412.92;84634;1329;25335;-77
2021/12/22 01:30:42;;;;;;;25.10;15.30;;;;;;;-4.63;80.96;101420.59;84627;1331;25429;-75
2021/12/22 01:32:53;;;;;;;22.10;14.00;;;;;;;-4.59;80.94;101425.69;84566;1335;22804;-79
2021/12/22 01:35:08;;;;;;;19.70;12.10;;;;;;;-4.57;80.85;101435.50;84619;1333;22622;-78
2021/12/22 01:37:19;;;;;;;19.00;12.20;;;;;;;-4.55;81.13;101437.41;84598;1334;25544;-77
2021/12/22 01:39:28;;;;;;;22.40;13.40;;;;;;;-4.54;80.94;101435.94;84629;1333;22634;-78
2021/12/22 01:41:36;;;;;;;20.30;12.00;;;;;;;-4.53;80.95;101437.86;83910;1330;1003051;-73
2021/12/22 01:43:46;;;;;;;24.10;14.60;;;;;;;-4.51;80.78;101442.18;84632;1330;22625;-74
2021/12/22 01:46:21;;;;;;;19.20;14.40;;;;;;;-4.51;80.85;101442.86;83921;1329;1003224;-72
2021/12/22 01:51:13;;;;;;;22.90;14.90;;;;;;;-4.50;80.91;101447.85;83904;1329;1003089;-73
2021/12/22 01:53:45;;;;;;;21.70;15.10;;;;;;;-4.49;80.87;101451.45;84638;1331;22576;-73
2021/12/22 01:56:03;;;;;;;21.10;13.70;;;;;;;-4.46;80.94;101452.96;84623;1333;22654;-74
2021/12/22 01:58:15;;;;;;;20.00;12.80;;;;;;;-4.40;80.93;101451.49;84622;1333;26486;-73
2021/12/22 02:00:26;;;;;;;18.90;12.00;;;;;;;-4.34;81.10;101451.70;84610;1333;22753;-76
2021/12/22 02:02:37;;;;;;;18.50;12.30;;;;;;;-4.30;81.04;101444.38;84632;1329;23322;-77
2021/12/22 02:04:49;;;;;;;19.80;13.20;;;;;;;-4.27;81.13;101451.68;83847;1335;1002868;-78
2021/12/22 02:07:01;;;;;;;19.60;12.30;;;;;;;-4.24;81.07;101452.31;83879;1335;1003083;-78
2021/12/22 02:09:11;;;;;;;18.60;12.90;;;;;;;-4.22;81.07;101446.91;84630;1331;22676;-78
2021/12/22 02:11:18;;;;;;;;;;;;;;;-4.20;81.19;101452.10;84671;1329;22592;-78
2021/12/22 02:13:34;;;;;;;27.70;15.30;;;;;;;-4.19;81.35;101446.37;84621;1330;22848;-78
2021/12/22 02:15:45;;;;;;;24.40;12.70;;;;;;;-4.17;81.27;101447.97;84509;1333;22622;-74
2021/12/22 02:17:56;;;;;;;35.30;17.10;;;;;;;-4.16;81.24;101444.27;84545;1333;24377;-73
2021/12/22 02:20:09;;;;;;;33.90;16.40;;;;;;;-4.12;81.17;101443.90;84554;1334;25498;-73
2021/12/22 02:22:18;;;;;;;27.20;15.50;;;;;;;-4.09;81.19;101444.17;84517;1332;22592;-76
2021/12/22 02:24:27;;;;;;;26.50;15.50;;;;;;;-4.04;81.18;101440.95;84577;1331;22605;-78
2021/12/22 02:26:42;;;;;;;23.50;13.20;;;;;;;-3.99;81.23;101438.63;84491;1333;26000;-78
2021/12/22 02:28:58;;;;;;;23.60;14.90;;;;;;;-3.97;81.05;101436.65;84579;1331;24417;-77
2021/12/22 02:31:13;;;;;;;24.00;13.70;;;;;;;-3.94;81.16;101432.52;84502;1330;22620;-78
2021/12/22 02:33:24;;;;;;;26.70;14.70;;;;;;;-3.90;81.02;101429.56;84556;1334;22606;-79
2021/12/22 02:35:41;;;;;;;33.00;17.40;;;;;;;-3.89;81.09;101429.97;84533;1336;22620;-79
2021/12/22 02:37:52;;;;;;;31.70;17.90;;;;;;;-3.90;80.92;101433.85;84568;1334;23001;-78
2021/12/22 02:40:11;;;;;;;28.10;15.70;;;;;;;-3.91;80.96;101434.31;84462;1334;22785;-78
2021/12/22 02:42:23;;;;;;;23.70;15.00;;;;;;;-3.94;80.79;101439.48;84504;1334;25586;-74
2021/12/22 02:44:35;;;;;;;23.40;15.50;;;;;;;-3.98;80.90;101442.75;84547;1331;22620;-74
2021/12/22 02:46:46;;;;;;;24.60;15.40;;;;;;;-3.99;80.82;101445.61;84497;1334;22680;-79
2021/12/22 02:48:56;;;;;;;18.80;13.70;;;;;;;-3.98;80.86;101443.45;84552;1333;25348;-78
2021/12/22 02:51:08;;;;;;;20.20;11.80;;;;;;;-3.96;80.82;101444.86;84577;1332;22807;-72
2021/12/22 02:53:16;;;;;;;24.80;12.80;;;;;;;-3.92;81.06;101446.20;84492;1336;22784;-73
2021/12/22 02:55:31;;;;;;;22.40;13.50;;;;;;;-3.89;80.98;101450.40;84563;1334;24188;-76
2021/12/22 02:57:46;;;;;;;23.20;14.90;;;;;;;-3.88;80.93;101447.36;84576;1334;25432;-78
2021/12/22 03:00:22;;;;;;;23.30;13.20;;;;;;;-3.87;80.95;101446.03;83847;1334;1003812;-78
2021/12/22 03:02:33;;;;;;;23.50;14.20;;;;;;;-3.84;81.15;101442.40;84498;1334;24055;-74
2021/12/22 03:04:52;;;;;;;27.90;14.60;;;;;;;-3.81;81.18;101445.92;84556;1333;22682;-73
2021/12/22 03:07:09;;;;;;;22.40;13.70;;;;;;;-3.81;80.92;101447.48;84522;1326;22607;-78
2021/12/22 03:09:22;;;;;;;21.00;13.60;;;;;;;-3.83;80.90;101449.77;84537;1333;22814;-78
2021/12/22 03:11:33;;;;;;;19.40;13.20;;;;;;;-3.84;81.08;101453.52;84532;1327;22638;-77
2021/12/22 03:13:41;;;;;;;21.20;14.60;;;;;;;-3.81;80.99;101447.63;84560;1331;22657;-76
2021/12/22 03:15:53;;;;;;;20.20;13.30;;;;;;;-3.79;81.01;101449.42;84579;1332;26665;-74
2021/12/22 03:18:06;;;;;;;25.10;13.70;;;;;;;-3.76;81.00;101455.49;84641;1325;22858;-74
2021/12/22 03:20:18;;;;;;;21.00;11.80;;;;;;;-3.74;80.99;101456.09;84540;1333;22589;-75
2021/12/22 03:22:30;;;;;;;19.40;12.80;;;;;;;-3.72;80.88;101460.77;84623;1333;22658;-79
2021/12/22 03:24:40;;;;;;;16.90;11.50;;;;;;;-3.71;80.87;101455.50;84608;1330;22690;-78
2021/12/22 03:26:48;;;;;;;20.10;12.70;;;;;;;-3.72;80.85;101464.36;84575;1333;22793;-78
2021/12/22 03:28:57;;;;;;;20.50;13.70;;;;;;;-3.70;80.97;101461.67;84627;1330;26537;-78
2021/12/22 03:31:07;;;;;;;21.30;13.80;;;;;;;-3.71;80.91;101457.38;84654;1333;22622;-73
2021/12/22 03:33:15;;;;;;;22.60;13.10;;;;;;;-3.71;81.02;101466.92;84658;1333;24225;-73
2021/12/22 03:35:24;;;;;;;17.90;12.90;;;;;;;-3.70;80.81;101466.45;84543;1331;22618;-73
2021/12/22 03:37:33;;;;;;;25.10;13.10;;;;;;;-3.70;80.80;101466.31;84590;1330;22709;-73
2021/12/22 03:39:46;;;;;;;21.30;12.10;;;;;;;-3.69;80.67;101465.30;84628;1330;22578;-73
2021/12/22 03:41:55;;;;;;;15.60;11.70;;;;;;;-3.69;80.66;101465.48;84616;1329;24261;-73
2021/12/22 03:44:05;;;;;;;16.70;11.90;;;;;;;-3.66;80.86;101464.73;84632;1322;22612;-73
2021/12/22 03:46:13;;;;;;;17.80;13.00;;;;;;;-3.64;80.81;101468.58;84700;1330;25264;-77
2021/12/22 03:48:24;;;;;;;21.80;12.00;;;;;;;-3.60;80.92;101468.85;84618;1330;22716;-77
2021/12/22 03:50:33;;;;;;;20.80;13.10;;;;;;;-3.58;80.72;101469.63;83837;1335;1003856;-73
2021/12/22 03:52:47;;;;;;;19.40;12.00;;;;;;;-3.60;80.61;101473.15;84571;1333;22622;-73
2021/12/22 03:54:58;;;;;;;21.60;13.20;;;;;;;-3.61;80.63;101475.15;84624;1330;23976;-73
2021/12/22 03:57:08;;;;;;;19.10;12.10;;;;;;;-3.61;80.59;101477.73;84670;1329;23949;-77
2021/12/22 03:59:20;;;;;;;15.10;9.30;;;;;;;-3.66;80.33;101477.55;84534;1333;22619;-78
2021/12/22 04:01:30;;;;;;;22.90;13.90;;;;;;;-3.72;80.23;101483.08;84656;1333;22597;-78
2021/12/22 04:03:44;;;;;;;22.10;13.70;;;;;;;-3.78;80.25;101483.20;84635;1329;22882;-77
2021/12/22 04:05:53;;;;;;;22.00;13.10;;;;;;;-3.83;80.09;101481.64;84563;1333;22925;-77
2021/12/22 04:08:05;;;;;;;19.60;13.10;;;;;;;-3.87;80.27;101480.83;84639;1331;25453;-78
2021/12/22 04:10:22;;;;;;;15.00;10.80;;;;;;;-3.87;80.39;101483.54;84625;1325;22675;-75
2021/12/22 04:12:31;;;;;;;13.70;10.40;;;;;;;-3.84;80.49;101487.08;84667;1330;22719;-77
2021/12/22 04:14:40;;;;;;;17.10;11.20;;;;;;;-3.82;80.54;101488.86;84628;1330;22686;-79
2021/12/22 04:16:49;;;;;;;14.30;11.00;;;;;;;-3.77;80.66;101488.70;84651;1330;22599;-78
2021/12/22 04:18:57;;;;;;;16.70;11.30;;;;;;;-3.72;80.84;101493.85;84624;1330;22636;-79
2021/12/22 04:21:06;;;;;;;17.00;12.50;;;;;;;-3.69;80.63;101491.56;84653;1333;25473;-78
2021/12/22 04:23:15;;;;;;;20.40;11.90;;;;;;;-3.70;80.52;101489.84;84642;1327;22858;-78
2021/12/22 04:25:23;;;;;;;21.60;12.10;;;;;;;-3.74;80.45;101486.95;84687;1330;22612;-76
2021/12/22 04:27:32;;;;;;;18.10;12.40;;;;;;;-3.76;80.39;101483.45;84647;1329;22662;-78
2021/12/22 04:29:41;;;;;;;19.10;12.80;;;;;;;-3.77;80.46;101484.61;84635;1333;22719;-78
2021/12/22 04:31:52;;;;;;;17.60;11.60;;;;;;;-3.76;80.48;101485.50;84621;1327;22592;-74
2021/12/22 04:34:07;;;;;;;20.60;13.40;;;;;;;-3.76;80.40;101483.30;84623;1328;22610;-74
2021/12/22 04:36:16;;;;;;;17.00;11.20;;;;;;;-3.73;80.51;101481.70;84637;1330;23048;-74
2021/12/22 04:38:25;;;;;;;16.20;11.00;;;;;;;-3.70;80.42;101483.52;84637;1329;22732;-73
2021/12/22 04:40:34;;;;;;;17.60;11.80;;;;;;;-3.70;80.36;101483.85;84673;1326;22569;-76
2021/12/22 04:42:46;;;;;;;13.70;10.10;;;;;;;-3.69;80.30;101485.25;84577;1333;22634;-78
2021/12/22 04:45:00;;;;;;;16.90;11.20;;;;;;;-3.67;80.36;101489.77;84621;1330;22620;-78
2021/12/22 04:47:13;;;;;;;18.00;11.70;;;;;;;-3.66;80.45;101487.23;84644;1329;22586;-73
2021/12/22 04:49:22;;;;;;;19.90;12.30;;;;;;;-3.69;80.29;101485.45;84629;1330;22812;-72
2021/12/22 04:51:32;;;;;;;14.70;10.80;;;;;;;-3.72;80.25;101483.61;84667;1329;22878;-73
2021/12/22 04:53:51;;;;;;;21.50;12.00;;;;;;;-3.75;80.37;101484.34;84587;1331;22697;-73
2021/12/22 04:55:59;;;;;;;21.60;12.60;;;;;;;-3.76;80.31;101481.25;84619;1333;22603;-76
2021/12/22 04:58:11;;;;;;;16.00;11.80;;;;;;;-3.75;80.38;101482.12;84646;1330;22573;-77
2021/12/22 05:00:21;;;;;;;19.00;11.50;;;;;;;-3.76;80.16;101478.49;84655;1331;22613;-74
2021/12/22 05:02:30;;;;;;;13.10;10.30;;;;;;;-3.76;80.24;101479.19;84570;1323;22627;-73
2021/12/22 05:04:39;;;;;;;15.30;10.70;;;;;;;-3.71;80.39;101487.21;84613;1333;22712;-73
2021/12/22 05:06:48;;;;;;;17.20;11.90;;;;;;;-3.67;80.39;101492.84;84669;1326;22582;-72
2021/12/22 05:08:58;;;;;;;17.70;11.30;;;;;;;-3.64;80.31;101496.90;84645;1325;22695;-72
2021/12/22 05:11:07;;;;;;;16.60;11.60;;;;;;;-3.63;80.35;101496.91;84615;1332;22819;-73
2021/12/22 05:13:15;;;;;;;17.30;12.00;;;;;;;-3.65;80.22;101497.18;84634;1329;22600;-73
2021/12/22 05:15:27;;;;;;;16.20;11.60;;;;;;;-3.67;80.25;101497.96;84628;1329;22618;-77
2021/12/22 05:18:01;;;;;;;16.80;11.10;;;;;;;-3.70;80.19;101496.14;84574;1333;22593;-77
2021/12/22 05:20:14;;;;;;;16.30;12.00;;;;;;;-3.72;80.28;101497.27;84642;1329;23975;-77
2021/12/22 05:22:22;;;;;;;16.80;12.40;;;;;;;-3.75;80.19;101498.52;84650;1328;24294;-78
2021/12/22 05:24:34;;;;;;;19.00;13.30;;;;;;;-3.76;80.31;101495.05;84647;1332;22609;-76
2021/12/22 05:26:42;;;;;;;19.10;13.40;;;;;;;-3.75;80.27;101500.02;84654;1330;22855;-73
2021/12/22 05:28:50;;;;;;;14.10;9.90;;;;;;;-3.73;80.31;101502.17;84658;1330;25323;-74
2021/12/22 05:30:59;;;;;;;22.50;13.40;;;;;;;-3.71;80.28;101502.39;84637;1325;23234;-77
2021/12/22 05:33:07;;;;;;;26.50;16.90;;;;;;;-3.70;80.29;101505.83;84667;1333;22857;-81
2021/12/22 05:35:22;;;;;;;24.50;16.50;;;;;;;-3.71;80.27;101508.18;84656;1330;24405;-72
2021/12/22 05:37:33;;;;;;;20.60;13.00;;;;;;;-3.71;80.31;101503.23;84615;1329;22600;-78
2021/12/22 05:39:42;;;;;;;20.20;13.00;;;;;;;-3.72;80.26;101509.53;84648;1329;23967;-79
2021/12/22 05:41:50;;;;;;;16.40;11.80;;;;;;;-3.72;80.35;101515.84;84638;1330;22609;-73
2021/12/22 05:44:02;;;;;;;20.50;12.80;;;;;;;-3.73;80.27;101516.16;84618;1329;22614;-73
2021/12/22 05:46:11;;;;;;;18.20;11.30;;;;;;;-3.76;80.18;101519.59;84669;1330;22709;-74
2021/12/22 05:48:21;;;;;;;19.80;12.10;;;;;;;-3.80;80.27;101521.66;84630;1329;22604;-73
2021/12/22 05:50:33;;;;;;;20.10;13.40;;;;;;;-3.80;80.33;101521.98;84649;1324;22612;-76
2021/12/22 05:52:42;;;;;;;18.70;12.00;;;;;;;-3.78;80.39;101527.20;84630;1329;22860;-77
2021/12/22 05:54:50;;;;;;;16.00;10.90;;;;;;;-3.73;80.42;101529.45;84647;1330;22624;-77
2021/12/22 05:57:02;;;;;;;18.60;12.60;;;;;;;-3.70;80.40;101531.27;83930;1330;1003112;-74
2021/12/22 05:59:11;;;;;;;19.10;12.70;;;;;;;-3.66;80.49;101535.84;84606;1330;24207;-73
2021/12/22 06:01:19;;;;;;;18.80;12.30;;;;;;;-3.64;80.46;101538.48;84670;1326;22636;-74
2021/12/22 06:03:28;;;;;;;18.60;12.30;;;;;;;-3.61;80.56;101546.27;84651;1330;22676;-73
2021/12/22 06:05:36;;;;;;;18.60;11.90;;;;;;;-3.60;80.47;101548.02;83915;1330;1003166;-77
2021/12/22 06:07:45;;;;;;;17.60;11.60;;;;;;;-3.61;80.48;101552.23;84659;1329;22729;-77
2021/12/22 06:09:53;;;;;;;17.10;11.90;;;;;;;-3.62;80.32;101554.09;84548;1328;23108;-78
2021/12/22 06:12:01;;;;;;;22.40;13.10;;;;;;;-3.62;80.37;101556.62;84625;1329;23073;-73
2021/12/22 06:14:12;;;;;;;23.80;13.30;;;;;;;-3.61;80.51;101555.96;84638;1329;22612;-73
2021/12/22 06:16:21;;;;;;;21.60;12.90;;;;;;;-3.61;80.49;101559.23;83958;1330;1002947;-77
2021/12/22 06:18:34;;;;;;;19.80;13.30;;;;;;;-3.58;80.54;101563.96;84626;1330;22669;-79
2021/12/22 06:20:46;;;;;;;20.10;11.70;;;;;;;-3.56;80.53;101567.44;84641;1330;22834;-79
2021/12/22 06:22:57;;;;;;;19.40;11.90;;;;;;;-3.54;80.51;101572.96;84613;1330;24280;-79
2021/12/22 06:25:06;;;;;;;14.50;10.60;;;;;;;-3.50;80.66;101573.61;84312;1321;431310;-78
2021/12/22 06:27:14;;;;;;;18.60;11.80;;;;;;;-3.47;80.56;101574.79;84646;1329;22699;-79
2021/12/22 06:29:26;;;;;;;16.40;12.20;;;;;;;-3.43;80.62;101572.73;84633;1332;22607;-78
2021/12/22 06:31:37;;;;;;;16.70;12.70;;;;;;;-3.41;80.49;101573.46;84666;1329;24254;-77
2021/12/22 06:33:48;;;;;;;20.00;13.70;;;;;;;-3.43;80.37;101570.66;84535;1332;22874;-77
2021/12/22 06:36:00;;;;;;;18.00;12.10;;;;;;;-3.44;80.41;101568.10;84608;1330;22608;-74
2021/12/22 06:38:08;;;;;;;18.60;11.50;;;;;;;-3.43;80.43;101578.52;84626;1330;22602;-73
2021/12/22 06:40:17;;;;;;;21.30;12.90;;;;;;;-3.44;80.37;101591.11;84628;1330;22677;-75
2021/12/22 06:42:31;;;;;;;19.80;13.90;;;;;;;-3.45;80.26;101593.80;84634;1323;25384;-74
2021/12/22 06:44:41;;;;;;;21.70;13.10;;;;;;;-3.46;80.33;101590.70;84559;1327;22806;-72
2021/12/22 06:46:53;;;;;;;18.90;11.10;;;;;;;-3.46;80.37;101589.33;84651;1327;22629;-74
2021/12/22 06:49:05;;;;;;;20.30;12.90;;;;;;;-3.42;80.63;101598.01;84615;1330;24258;-73
2021/12/22 06:51:17;;;;;;;27.20;13.90;;;;;;;-3.38;80.60;101599.02;83923;1329;1003125;-82
2021/12/22 06:53:31;;;;;;;25.70;15.60;;;;;;;-3.34;80.57;101594.88;84614;1330;22620;-82
2021/12/22 06:55:39;;;;;;;22.80;14.50;;;;;;;-3.31;80.63;101603.88;84686;1330;22629;-73
2021/12/22 06:57:51;;;;;;;21.40;13.90;;;;;;;-3.30;80.54;101602.90;84522;1332;22666;-74
2021/12/22 07:00:06;;;;;;;23.80;13.90;;;;;;;-3.29;80.49;101604.46;84637;1327;22847;-74
2021/12/22 07:02:19;;;;;;;19.30;13.00;;;;;;;-3.31;80.43;101603.37;84601;1329;22582;-81
2021/12/22 07:04:30;;;;;;;22.30;14.30;;;;;;;-3.33;80.43;101608.91;84555;1330;22606;-79
2021/12/22 07:06:39;;;;;;;25.00;14.50;;;;;;;-3.35;80.54;101611.22;83905;1329;1003284;-74
2021/12/22 07:08:53;;;;;;;20.90;14.40;;;;;;;-3.35;80.54;101613.63;84522;1332;22609;-73
2021/12/22 07:11:10;;;;;;;19.20;13.30;;;;;;;-3.32;80.48;101612.02;84577;1329;22723;-78
2021/12/22 07:13:22;;;;;;;16.20;11.60;;;;;;;-3.27;80.53;101610.67;84621;1330;22618;-78
2021/12/22 07:18:23;;;;;;;18.40;12.40;;;;;;;-3.20;80.38;101612.66;84594;1332;22594;-76
2021/12/22 07:20:35;;;;;;;17.00;12.90;;;;;;;-3.19;80.37;101616.98;84559;1330;22631;-77
2021/12/22 07:22:47;;;;;;;18.60;11.60;;;;;;;-3.19;80.38;101613.90;83856;1330;1003746;-79
2021/12/22 07:25:02;;;;;;;21.50;13.80;;;;;;;-3.18;80.42;101615.13;84540;1333;22705;-77
2021/12/22 07:27:15;;;;;;;20.70;14.30;;;;;;;-3.17;80.45;101618.08;84528;1331;22615;-79
2021/12/22 07:29:29;;;;;;;23.00;14.70;;;;;;;-3.14;80.46;101619.55;84630;1327;22828;-84
2021/12/22 07:31:40;;;;;;;23.00;13.90;;;;;;;-3.14;80.39;101617.68;84535;1331;25403;-75
2021/12/22 07:34:08;;;;;;;18.40;13.40;;;;;;;-3.15;80.34;101623.80;84576;1330;24126;-76
2021/12/22 07:36:20;;;;;;;22.10;14.70;;;;;;;-3.14;80.37;101627.22;84546;1327;22592;-77
2021/12/22 07:38:45;;;;;;;22.60;14.70;;;;;;;-3.15;80.26;101624.66;84565;1330;22628;-76
2021/12/22 07:40:56;;;;;;;23.20;14.20;;;;;;;-3.13;80.29;101626.75;84545;1332;25304;-76
2021/12/22 07:43:11;;;;;;;21.80;14.30;;;;;;;-3.11;80.38;101632.63;84552;1331;22607;-76
2021/12/22 07:51:46;;;;;;;28.80;15.40;;;;;;;-3.04;80.54;101634.76;84384;1330;22631;-75
2021/12/22 07:53:57;;;;;;;22.60;13.90;;;;;;;-3.01;80.52;101636.06;83736;1335;1003008;-74
2021/12/22 07:56:08;;;;;;;27.30;14.60;;;;;;;-2.98;80.46;101633.10;84416;1334;22714;-77
2021/12/22 07:58:19;;;;;;;25.60;15.20;;;;;;;-2.97;80.43;101635.36;84407;1336;22610;-78
2021/12/22 08:00:33;;;;;;;29.80;17.60;;;;;;;-2.97;80.44;101636.23;84359;1335;23951;-76
2021/12/22 08:02:49;;;;;;;31.20;17.90;;;;;;;-2.97;80.31;101641.34;84504;1330;22754;-73
2021/12/22 08:05:02;;;;;;;27.70;16.10;;;;;;;-2.95;80.32;101647.89;84581;1334;23989;-75
2021/12/22 08:07:13;;;;;;;25.50;15.20;;;;;;;-2.91;80.39;101644.98;84585;1330;22606;-72
2021/12/22 08:09:26;;;;;;;33.20;17.70;;;;;;;-2.87;80.51;101642.73;84553;1328;22604;-75
2021/12/22 08:11:40;;;;;;;28.60;16.20;;;;;;;-2.82;80.45;101638.98;84531;1328;22675;-79
2021/12/22 08:13:52;;;;;;;25.50;16.40;;;;;;;-2.76;80.50;101640.08;84574;1333;22607;-78
2021/12/22 08:16:06;;;;;;;24.40;15.60;;;;;;;-2.72;80.49;101640.38;84666;1327;22613;-74
2021/12/22 08:18:18;;;;;;;28.30;17.40;;;;;;;-2.71;80.31;101639.89;84628;1333;22605;-76
2021/12/22 08:20:36;;;;;;;27.70;16.40;;;;;;;-2.71;80.25;101633.95;84529;1330;22596;-74
2021/12/22 08:22:48;;;;;;;22.50;14.60;;;;;;;-2.70;80.20;101630.71;84628;1329;22849;-74
2021/12/22 08:24:56;;;;;;;24.60;15.60;;;;;;;-2.70;80.31;101623.71;84545;1333;25386;-74
2021/12/22 08:27:09;;;;;;;25.90;15.20;;;;;;;-2.70;80.29;101623.91;84579;1329;24018;-78
2021/12/22 08:29:20;;;;;;;25.00;14.40;;;;;;;-2.66;80.15;101624.00;84629;1329;22586;-78
2021/12/22 08:31:35;;;;;;;19.30;12.50;;;;;;;-2.65;80.00;101629.39;84500;1333;25313;-77
2021/12/22 08:33:46;;;;;;;24.10;13.40;;;;;;;-2.61;80.13;101635.15;84626;1329;22620;-78
2021/12/22 08:38:52;;;;;;;59.60;35.90;;;;;;;-2.57;79.87;101635.77;84620;1325;22843;-81
2021/12/22 08:41:01;;;;;;;51.40;31.90;;;;;;;-2.54;79.96;101634.17;84648;1330;22671;-73
2021/12/22 08:43:15;;;;;;;32.90;18.90;;;;;;;-2.53;80.00;101634.39;84634;1329;24234;-73
2021/12/22 08:45:25;;;;;;;25.90;16.20;;;;;;;-2.50;80.03;101635.20;84597;1325;22662;-73
2021/12/22 08:47:34;;;;;;;34.70;17.80;;;;;;;-2.48;79.83;101641.58;83929;1331;1003003;-73
2021/12/22 08:49:43;;;;;;;36.20;18.60;;;;;;;-2.48;79.75;101643.63;84627;1330;22600;-73
2021/12/22 08:51:55;;;;;;;31.70;17.50;;;;;;;-2.50;79.67;101648.84;83901;1325;1003155;-73
2021/12/22 08:54:03;;;;;;;34.60;19.20;;;;;;;-2.52;79.62;101647.41;83893;1329;1003143;-73
2021/12/22 08:56:15;;;;;;;34.50;17.40;;;;;;;-2.54;79.67;101647.02;84559;1330;24286;-74
2021/12/22 08:58:27;;;;;;;31.80;17.00;;;;;;;-2.52;79.75;101652.88;84615;1329;24327;-74
2021/12/22 09:00:38;;;;;;;28.20;17.60;;;;;;;-2.45;79.79;101656.55;83900;1330;1017479;-76
2021/12/22 09:02:52;;;;;;;32.10;17.50;;;;;;;-2.39;79.82;101654.90;84632;1329;22733;-74
2021/12/22 09:05:05;;;;;;;28.50;17.00;;;;;;;-2.35;79.69;101655.55;84620;1329;26546;-73
2021/12/22 09:07:17;;;;;;;27.20;16.30;;;;;;;-2.32;79.46;101662.66;84612;1329;22627;-76
2021/12/22 09:09:26;;;;;;;30.30;17.20;;;;;;;-2.33;79.33;101668.09;84614;1329;22643;-77
2021/12/22 09:11:38;;;;;;;34.50;18.80;;;;;;;-2.35;79.42;101670.23;84646;1330;25455;-73
2021/12/22 09:13:47;;;;;;;34.10;16.90;;;;;;;-2.36;79.35;101674.15;84633;1329;22811;-72
2021/12/22 09:15:59;;;;;;;32.10;18.10;;;;;;;-2.35;79.35;101669.39;84606;1330;22794;-73
2021/12/22 09:18:12;;;;;;;33.90;18.00;;;;;;;-2.34;79.47;101668.91;84632;1330;22594;-72
2021/12/22 09:20:24;;;;;;;30.70;17.20;;;;;;;-2.36;79.31;101668.83;84610;1329;22617;-76
2021/12/22 09:22:37;;;;;;;32.70;18.00;;;;;;;-2.39;79.16;101672.52;84611;1329;22613;-77
2021/12/22 09:24:52;;;;;;;28.30;15.70;;;;;;;-2.38;79.08;101674.27;84574;1331;23958;-78
2021/12/22 09:27:01;;;;;;;31.80;19.00;;;;;;;-2.37;79.17;101676.86;84641;1329;22612;-72
2021/12/22 09:29:09;;;;;;;27.30;17.00;;;;;;;-2.35;79.00;101674.70;84604;1330;22598;-72
2021/12/22 09:31:22;;;;;;;30.70;16.60;;;;;;;-2.35;78.85;101676.58;84550;1333;22623;-71
2021/12/22 09:33:31;;;;;;;28.40;16.40;;;;;;;-2.34;79.01;101676.09;84597;1329;25368;-73
2021/12/22 09:35:43;;;;;;;32.40;17.80;;;;;;;-2.30;79.07;101676.91;84611;1324;22596;-74
2021/12/22 09:37:55;;;;;;;32.90;17.20;;;;;;;-2.30;78.92;101674.52;84597;1330;24077;-74
2021/12/22 09:40:05;;;;;;;28.90;18.30;;;;;;;-2.29;79.11;101674.54;84642;1330;24213;-73
2021/12/22 09:42:14;;;;;;;26.90;14.40;;;;;;;-2.28;79.11;101676.79;84510;1332;22600;-80
2021/12/22 09:44:31;;;;;;;33.20;15.80;;;;;;;-2.28;79.00;101678.34;84588;1332;22767;-77
2021/12/22 09:46:45;;;;;;;29.50;15.90;;;;;;;-2.27;78.93;101676.65;84622;1329;22607;-73
2021/12/22 09:49:06;;;;;;;31.00;17.30;;;;;;;-2.26;78.97;101674.16;84627;1329;22599;-73
2021/12/22 09:53:50;;;;;;;31.80;16.00;;;;;;;-2.18;79.07;101669.30;84607;1329;22663;-74
2021/12/22 09:56:03;;;;;;;28.40;15.60;;;;;;;-2.11;79.08;101667.15;84525;1331;22626;-75
2021/12/22 09:58:20;;;;;;;27.20;14.70;;;;;;;-2.03;78.96;101666.40;84534;1333;22686;-75
2021/12/22 10:00:33;;;;;;;29.80;15.50;;;;;;;-1.96;78.73;101662.69;84622;1326;25380;-75
2021/12/22 10:02:47;;;;;;;25.70;14.90;;;;;;;-1.92;78.75;101661.12;84536;1333;23864;-74
2021/12/22 10:05:03;;;;;;;26.30;15.60;;;;;;;-1.87;78.77;101659.08;84627;1333;24216;-74
2021/12/22 10:07:16;;;;;;;25.90;15.30;;;;;;;-1.80;78.64;101655.35;84606;1330;25327;-78
2021/12/22 10:09:30;;;;;;;24.00;14.70;;;;;;;-1.73;78.78;101657.14;84606;1330;25449;-78
2021/12/22 10:11:47;;;;;;;25.00;14.80;;;;;;;-1.69;78.41;101650.58;84609;1329;23954;-78
2021/12/22 10:13:59;;;;;;;28.30;15.30;;;;;;;-1.68;78.16;101647.72;84641;1330;22681;-75
2021/12/22 10:16:16;;;;;;;25.70;15.90;;;;;;;-1.67;77.85;101650.13;84636;1325;25452;-76